Fort Gaines, Georgia
Current Conditions -  °F | °C
As of 12:35 PM on Wednesday 26 Nov 2014 (Local Time) from KBIJ Reporting Station
Clear Clear  
Wind Chill: 59°   Ceiling: Unl
Heat Index: 59°   Visibility: 10mi
Dew Point: 32°   Wind: 13mph
Humidity: 36%   Direction: 300°WNW
Pressure: 30.19"   Gusts: 18mph
Location:  31.61°N, 85.05°W
Report Text: KBIJ 261735Z AUTO 30011G16KT 10SM CLR 15/00 A3019 RMK AO2
Loading
Personal Weather Stations






























Interactive Weather Map New forecast layout! Learn more

10-Day Weather Forecast

Advertisements
Track Severe Weather on mobile